sensor_id;sensor_type;location;lat;lon;timestamp;temperature;humidity
15409;DHT22;7803;48.130;13.788;2023-04-01T00:01:24;21.20;60.20
15409;DHT22;7803;48.130;13.788;2023-04-01T00:04:26;21.20;60.20
15409;DHT22;7803;48.130;13.788;2023-04-01T00:07:30;21.20;60.20
15409;DHT22;7803;48.130;13.788;2023-04-01T00:10:32;21.20;60.20
15409;DHT22;7803;48.130;13.788;2023-04-01T00:13:34;21.20;60.20
15409;DHT22;7803;48.130;13.788;2023-04-01T00:16:36;21.20;60.40
15409;DHT22;7803;48.130;13.788;2023-04-01T00:19:38;21.20;60.40
15409;DHT22;7803;48.130;13.788;2023-04-01T00:22:42;21.20;60.50
15409;DHT22;7803;48.130;13.788;2023-04-01T00:25:45;21.20;60.40
15409;DHT22;7803;48.130;13.788;2023-04-01T00:28:48;21.20;60.50
15409;DHT22;7803;48.130;13.788;2023-04-01T00:31:51;21.20;60.50
15409;DHT22;7803;48.130;13.788;2023-04-01T00:34:53;21.20;60.50
15409;DHT22;7803;48.130;13.788;2023-04-01T00:37:56;21.10;60.40
15409;DHT22;7803;48.130;13.788;2023-04-01T00:40:58;21.10;60.40
15409;DHT22;7803;48.130;13.788;2023-04-01T00:44:17;21.10;60.30
15409;DHT22;7803;48.130;13.788;2023-04-01T00:47:20;21.10;60.20
15409;DHT22;7803;48.130;13.788;2023-04-01T00:50:24;21.10;60.10
15409;DHT22;7803;48.130;13.788;2023-04-01T00:53:28;21.10;60.40
15409;DHT22;7803;48.130;13.788;2023-04-01T00:56:33;21.10;60.50
15409;DHT22;7803;48.130;13.788;2023-04-01T00:59:39;21.10;60.40
15409;DHT22;7803;48.130;13.788;2023-04-01T01:02:43;21.10;60.30
15409;DHT22;7803;48.130;13.788;2023-04-01T01:09:28;21.10;60.40
15409;DHT22;7803;48.130;13.788;2023-04-01T01:12:36;21.10;60.40
15409;DHT22;7803;48.130;13.788;2023-04-01T01:15:44;21.00;60.40
15409;DHT22;7803;48.130;13.788;2023-04-01T01:18:51;21.00;60.40
15409;DHT22;7803;48.130;13.788;2023-04-01T01:22:14;21.00;60.40
15409;DHT22;7803;48.130;13.788;2023-04-01T01:25:29;21.00;60.40
15409;DHT22;7803;48.130;13.788;2023-04-01T01:28:42;21.00;60.40
15409;DHT22;7803;48.130;13.788;2023-04-01T01:31:53;21.00;60.50
15409;DHT22;7803;48.130;13.788;2023-04-01T01:35:14;21.00;60.60
15409;DHT22;7803;48.130;13.788;2023-04-01T01:38:21;21.00;60.60
15409;DHT22;7803;48.130;13.788;2023-04-01T01:41:25;21.00;60.60
15409;DHT22;7803;48.130;13.788;2023-04-01T01:44:30;21.00;60.70
15409;DHT22;7803;48.130;13.788;2023-04-01T01:47:33;21.00;60.60
15409;DHT22;7803;48.130;13.788;2023-04-01T01:50:39;21.00;60.80
15409;DHT22;7803;48.130;13.788;2023-04-01T01:53:42;21.00;60.70
15409;DHT22;7803;48.130;13.788;2023-04-01T01:56:46;20.90;60.70
15409;DHT22;7803;48.130;13.788;2023-04-01T01:59:52;20.90;60.70
15409;DHT22;7803;48.130;13.788;2023-04-01T02:02:57;20.90;60.70
15409;DHT22;7803;48.130;13.788;2023-04-01T02:06:04;20.90;60.90
15409;DHT22;7803;48.130;13.788;2023-04-01T02:09:08;20.90;61.00
15409;DHT22;7803;48.130;13.788;2023-04-01T02:12:14;20.90;61.20
15409;DHT22;7803;48.130;13.788;2023-04-01T02:15:19;20.90;61.20
15409;DHT22;7803;48.130;13.788;2023-04-01T02:18:22;20.90;61.40
15409;DHT22;7803;48.130;13.788;2023-04-01T02:21:28;20.90;61.50
15409;DHT22;7803;48.130;13.788;2023-04-01T02:24:33;20.90;61.60
15409;DHT22;7803;48.130;13.788;2023-04-01T02:27:37;20.90;61.60
15409;DHT22;7803;48.130;13.788;2023-04-01T02:30:41;20.90;61.60
15409;DHT22;7803;48.130;13.788;2023-04-01T02:33:45;20.90;61.70
15409;DHT22;7803;48.130;13.788;2023-04-01T02:36:50;20.90;61.80
15409;DHT22;7803;48.130;13.788;2023-04-01T02:39:52;20.90;61.90
15409;DHT22;7803;48.130;13.788;2023-04-01T02:42:54;20.80;61.80
15409;DHT22;7803;48.130;13.788;2023-04-01T02:45:56;20.80;61.80
15409;DHT22;7803;48.130;13.788;2023-04-01T02:48:58;20.80;61.90
15409;DHT22;7803;48.130;13.788;2023-04-01T02:52:02;20.80;61.90
15409;DHT22;7803;48.130;13.788;2023-04-01T02:55:05;20.80;61.90
15409;DHT22;7803;48.130;13.788;2023-04-01T02:58:07;20.80;62.00
15409;DHT22;7803;48.130;13.788;2023-04-01T03:01:09;20.80;62.10
15409;DHT22;7803;48.130;13.788;2023-04-01T03:04:11;20.80;62.10
15409;DHT22;7803;48.130;13.788;2023-04-01T03:07:14;20.80;62.00
15409;DHT22;7803;48.130;13.788;2023-04-01T03:10:17;20.80;62.10
15409;DHT22;7803;48.130;13.788;2023-04-01T03:13:19;20.70;62.00
15409;DHT22;7803;48.130;13.788;2023-04-01T03:16:22;20.80;62.10
15409;DHT22;7803;48.130;13.788;2023-04-01T03:19:24;20.80;62.20
15409;DHT22;7803;48.130;13.788;2023-04-01T03:22:27;20.80;62.20
15409;DHT22;7803;48.130;13.788;2023-04-01T03:25:29;20.80;62.40
15409;DHT22;7803;48.130;13.788;2023-04-01T03:28:31;20.80;62.40
15409;DHT22;7803;48.130;13.788;2023-04-01T03:31:33;20.70;62.50
15409;DHT22;7803;48.130;13.788;2023-04-01T03:34:36;20.70;62.60
15409;DHT22;7803;48.130;13.788;2023-04-01T03:37:39;20.70;62.60
15409;DHT22;7803;48.130;13.788;2023-04-01T03:40:42;20.70;62.60
15409;DHT22;7803;48.130;13.788;2023-04-01T03:43:45;20.80;62.70
15409;DHT22;7803;48.130;13.788;2023-04-01T03:46:47;20.70;62.70
15409;DHT22;7803;48.130;13.788;2023-04-01T03:49:49;20.70;62.70
15409;DHT22;7803;48.130;13.788;2023-04-01T03:52:52;20.70;62.80
15409;DHT22;7803;48.130;13.788;2023-04-01T03:55:54;20.70;62.70
15409;DHT22;7803;48.130;13.788;2023-04-01T03:58:56;20.70;62.70
15409;DHT22;7803;48.130;13.788;2023-04-01T04:01:58;20.70;62.70
15409;DHT22;7803;48.130;13.788;2023-04-01T04:05:00;20.70;62.90
15409;DHT22;7803;48.130;13.788;2023-04-01T04:08:04;20.70;62.70
15409;DHT22;7803;48.130;13.788;2023-04-01T04:11:06;20.60;62.60
15409;DHT22;7803;48.130;13.788;2023-04-01T04:14:08;20.70;62.60
15409;DHT22;7803;48.130;13.788;2023-04-01T04:17:11;20.70;62.60
15409;DHT22;7803;48.130;13.788;2023-04-01T04:20:16;20.70;62.40
15409;DHT22;7803;48.130;13.788;2023-04-01T04:23:20;20.70;62.40
15409;DHT22;7803;48.130;13.788;2023-04-01T04:26:22;20.70;62.40
15409;DHT22;7803;48.130;13.788;2023-04-01T04:29:24;20.70;62.50
15409;DHT22;7803;48.130;13.788;2023-04-01T04:32:26;20.80;62.60
15409;DHT22;7803;48.130;13.788;2023-04-01T04:35:28;20.80;62.60
15409;DHT22;7803;48.130;13.788;2023-04-01T04:38:32;20.80;62.70
15409;DHT22;7803;48.130;13.788;2023-04-01T04:41:33;20.70;62.70
15409;DHT22;7803;48.130;13.788;2023-04-01T04:44:39;20.80;62.90
15409;DHT22;7803;48.130;13.788;2023-04-01T04:47:41;20.70;62.80
15409;DHT22;7803;48.130;13.788;2023-04-01T04:50:43;20.80;62.90
15409;DHT22;7803;48.130;13.788;2023-04-01T04:53:46;20.70;62.80
15409;DHT22;7803;48.130;13.788;2023-04-01T04:56:50;20.70;62.80
15409;DHT22;7803;48.130;13.788;2023-04-01T04:59:52;20.70;62.90
15409;DHT22;7803;48.130;13.788;2023-04-01T05:02:54;20.70;62.90
15409;DHT22;7803;48.130;13.788;2023-04-01T05:05:56;20.70;63.00
15409;DHT22;7803;48.130;13.788;2023-04-01T05:09:00;20.70;63.10
15409;DHT22;7803;48.130;13.788;2023-04-01T05:12:02;20.70;63.10
15409;DHT22;7803;48.130;13.788;2023-04-01T05:15:04;20.70;63.10
15409;DHT22;7803;48.130;13.788;2023-04-01T05:18:07;20.70;63.10
15409;DHT22;7803;48.130;13.788;2023-04-01T05:21:10;20.60;63.10
15409;DHT22;7803;48.130;13.788;2023-04-01T05:24:14;20.70;63.30
15409;DHT22;7803;48.130;13.788;2023-04-01T05:27:16;20.70;63.30
15409;DHT22;7803;48.130;13.788;2023-04-01T05:30:18;20.70;63.30
15409;DHT22;7803;48.130;13.788;2023-04-01T05:33:20;20.70;63.40
15409;DHT22;7803;48.130;13.788;2023-04-01T05:36:22;20.70;63.40
15409;DHT22;7803;48.130;13.788;2023-04-01T05:39:25;20.70;63.40
15409;DHT22;7803;48.130;13.788;2023-04-01T05:42:28;20.70;63.40
15409;DHT22;7803;48.130;13.788;2023-04-01T05:45:30;20.70;63.40
15409;DHT22;7803;48.130;13.788;2023-04-01T05:48:34;20.70;63.40
15409;DHT22;7803;48.130;13.788;2023-04-01T05:51:36;20.70;63.40
15409;DHT22;7803;48.130;13.788;2023-04-01T05:54:39;20.70;63.40
15409;DHT22;7803;48.130;13.788;2023-04-01T05:57:42;20.70;63.30
15409;DHT22;7803;48.130;13.788;2023-04-01T06:00:44;20.70;63.40
15409;DHT22;7803;48.130;13.788;2023-04-01T06:03:46;20.70;63.40
15409;DHT22;7803;48.130;13.788;2023-04-01T06:06:48;20.80;63.40
15409;DHT22;7803;48.130;13.788;2023-04-01T06:09:51;20.80;63.40
15409;DHT22;7803;48.130;13.788;2023-04-01T06:13:00;20.80;63.30
15409;DHT22;7803;48.130;13.788;2023-04-01T06:16:15;20.80;63.30
15409;DHT22;7803;48.130;13.788;2023-04-01T06:19:28;20.80;63.30
15409;DHT22;7803;48.130;13.788;2023-04-01T06:22:59;20.80;63.30
15409;DHT22;7803;48.130;13.788;2023-04-01T06:26:22;20.80;63.30
15409;DHT22;7803;48.130;13.788;2023-04-01T06:29:46;20.80;63.20
15409;DHT22;7803;48.130;13.788;2023-04-01T06:33:01;20.80;63.10
15409;DHT22;7803;48.130;13.788;2023-04-01T06:36:36;20.90;63.10
15409;DHT22;7803;48.130;13.788;2023-04-01T06:39:58;20.80;63.10
15409;DHT22;7803;48.130;13.788;2023-04-01T06:43:10;20.90;63.00
15409;DHT22;7803;48.130;13.788;2023-04-01T06:46:20;20.90;62.90
15409;DHT22;7803;48.130;13.788;2023-04-01T06:49:40;20.90;62.70
15409;DHT22;7803;48.130;13.788;2023-04-01T06:52:50;20.90;62.60
15409;DHT22;7803;48.130;13.788;2023-04-01T06:55:59;20.90;62.50
15409;DHT22;7803;48.130;13.788;2023-04-01T06:59:07;20.90;62.40
15409;DHT22;7803;48.130;13.788;2023-04-01T07:02:21;20.90;62.20
15409;DHT22;7803;48.130;13.788;2023-04-01T07:05:28;20.90;62.20
15409;DHT22;7803;48.130;13.788;2023-04-01T07:08:33;20.90;62.00
15409;DHT22;7803;48.130;13.788;2023-04-01T07:11:38;20.90;62.00
15409;DHT22;7803;48.130;13.788;2023-04-01T07:14:42;20.90;62.10
15409;DHT22;7803;48.130;13.788;2023-04-01T07:17:48;20.90;62.00
15409;DHT22;7803;48.130;13.788;2023-04-01T07:20:54;20.90;61.90
15409;DHT22;7803;48.130;13.788;2023-04-01T07:24:01;20.90;61.90
15409;DHT22;7803;48.130;13.788;2023-04-01T07:27:08;20.90;61.70
15409;DHT22;7803;48.130;13.788;2023-04-01T07:30:15;20.90;61.70
15409;DHT22;7803;48.130;13.788;2023-04-01T07:33:24;21.00;61.60
15409;DHT22;7803;48.130;13.788;2023-04-01T07:36:33;20.90;61.50
15409;DHT22;7803;48.130;13.788;2023-04-01T07:39:45;20.90;61.40
15409;DHT22;7803;48.130;13.788;2023-04-01T07:43:01;20.90;61.30
15409;DHT22;7803;48.130;13.788;2023-04-01T07:46:17;20.90;61.30
15409;DHT22;7803;48.130;13.788;2023-04-01T07:49:29;20.90;61.20
15409;DHT22;7803;48.130;13.788;2023-04-01T07:52:35;20.90;61.20
15409;DHT22;7803;48.130;13.788;2023-04-01T07:55:45;20.90;61.20
15409;DHT22;7803;48.130;13.788;2023-04-01T07:58:55;20.90;61.20
15409;DHT22;7803;48.130;13.788;2023-04-01T08:02:08;20.90;61.10
15409;DHT22;7803;48.130;13.788;2023-04-01T08:05:19;20.90;61.00
15409;DHT22;7803;48.130;13.788;2023-04-01T08:08:32;20.90;60.90
15409;DHT22;7803;48.130;13.788;2023-04-01T08:11:48;20.90;60.90
15409;DHT22;7803;48.130;13.788;2023-04-01T08:15:01;20.90;60.90
15409;DHT22;7803;48.130;13.788;2023-04-01T08:18:18;20.90;61.80
15409;DHT22;7803;48.130;13.788;2023-04-01T08:21:27;20.90;60.70
15409;DHT22;7803;48.130;13.788;2023-04-01T08:24:34;20.90;60.70
15409;DHT22;7803;48.130;13.788;2023-04-01T08:27:39;21.00;60.70
15409;DHT22;7803;48.130;13.788;2023-04-01T08:30:47;20.90;60.70
15409;DHT22;7803;48.130;13.788;2023-04-01T08:33:53;20.90;60.70
15409;DHT22;7803;48.130;13.788;2023-04-01T08:37:00;20.90;60.70
15409;DHT22;7803;48.130;13.788;2023-04-01T08:40:17;20.90;60.70
15409;DHT22;7803;48.130;13.788;2023-04-01T08:43:55;21.00;60.70
15409;DHT22;7803;48.130;13.788;2023-04-01T08:47:24;20.90;60.50
15409;DHT22;7803;48.130;13.788;2023-04-01T08:50:41;20.90;60.40
15409;DHT22;7803;48.130;13.788;2023-04-01T08:54:04;21.00;60.50
15409;DHT22;7803;48.130;13.788;2023-04-01T08:57:15;20.90;60.30
15409;DHT22;7803;48.130;13.788;2023-04-01T09:00:28;21.00;60.30
15409;DHT22;7803;48.130;13.788;2023-04-01T09:03:41;20.90;60.20
15409;DHT22;7803;48.130;13.788;2023-04-01T09:06:56;20.90;60.20
15409;DHT22;7803;48.130;13.788;2023-04-01T09:10:22;20.90;60.20
15409;DHT22;7803;48.130;13.788;2023-04-01T09:14:05;20.90;60.20
15409;DHT22;7803;48.130;13.788;2023-04-01T09:17:29;20.90;60.10
15409;DHT22;7803;48.130;13.788;2023-04-01T09:21:10;21.00;60.20
15409;DHT22;7803;48.130;13.788;2023-04-01T09:24:23;21.00;60.20
15409;DHT22;7803;48.130;13.788;2023-04-01T09:27:29;21.00;60.20
15409;DHT22;7803;48.130;13.788;2023-04-01T09:30:48;21.00;60.20
15409;DHT22;7803;48.130;13.788;2023-04-01T09:34:39;21.00;60.20
15409;DHT22;7803;48.130;13.788;2023-04-01T09:37:53;21.00;60.20
15409;DHT22;7803;48.130;13.788;2023-04-01T09:40:59;20.90;60.10
15409;DHT22;7803;48.130;13.788;2023-04-01T09:44:04;21.00;60.30
15409;DHT22;7803;48.130;13.788;2023-04-01T09:47:25;20.90;60.20
15409;DHT22;7803;48.130;13.788;2023-04-01T09:50:42;20.90;60.20
15409;DHT22;7803;48.130;13.788;2023-04-01T09:54:00;20.90;60.20
15409;DHT22;7803;48.130;13.788;2023-04-01T09:57:29;20.90;60.20
15409;DHT22;7803;48.130;13.788;2023-04-01T10:01:01;21.00;60.30
15409;DHT22;7803;48.130;13.788;2023-04-01T10:08:12;21.00;60.40
15409;DHT22;7803;48.130;13.788;2023-04-01T10:11:50;21.00;60.40
15409;DHT22;7803;48.130;13.788;2023-04-01T10:15:19;21.00;60.40
15409;DHT22;7803;48.130;13.788;2023-04-01T10:19:04;21.00;60.40
15409;DHT22;7803;48.130;13.788;2023-04-01T10:22:35;20.90;60.30
15409;DHT22;7803;48.130;13.788;2023-04-01T10:36:48;21.00;59.90
15409;DHT22;7803;48.130;13.788;2023-04-01T10:51:14;21.00;59.80
15409;DHT22;7803;48.130;13.788;2023-04-01T10:54:36;21.00;59.70
15409;DHT22;7803;48.130;13.788;2023-04-01T10:58:16;21.00;59.70
15409;DHT22;7803;48.130;13.788;2023-04-01T11:01:45;21.00;59.70
15409;DHT22;7803;48.130;13.788;2023-04-01T11:05:26;21.00;59.70
15409;DHT22;7803;48.130;13.788;2023-04-01T11:09:03;21.00;59.70
15409;DHT22;7803;48.130;13.788;2023-04-01T11:16:26;21.00;59.40
15409;DHT22;7803;48.130;13.788;2023-04-01T11:20:00;21.00;59.50
15409;DHT22;7803;48.130;13.788;2023-04-01T11:23:27;21.00;59.50
15409;DHT22;7803;48.130;13.788;2023-04-01T11:26:44;21.00;59.40
15409;DHT22;7803;48.130;13.788;2023-04-01T11:30:06;21.00;59.50
15409;DHT22;7803;48.130;13.788;2023-04-01T11:33:16;21.00;59.50
15409;DHT22;7803;48.130;13.788;2023-04-01T11:36:40;21.00;59.50
15409;DHT22;7803;48.130;13.788;2023-04-01T11:40:03;21.00;59.50
15409;DHT22;7803;48.130;13.788;2023-04-01T11:43:11;21.00;59.70
15409;DHT22;7803;48.130;13.788;2023-04-01T11:46:21;21.00;59.90
15409;DHT22;7803;48.130;13.788;2023-04-01T11:49:33;21.00;60.00
15409;DHT22;7803;48.130;13.788;2023-04-01T11:52:56;21.00;60.20
15409;DHT22;7803;48.130;13.788;2023-04-01T11:56:11;21.00;60.40
15409;DHT22;7803;48.130;13.788;2023-04-01T11:59:43;21.10;60.60
15409;DHT22;7803;48.130;13.788;2023-04-01T12:03:05;21.00;60.70
15409;DHT22;7803;48.130;13.788;2023-04-01T12:06:18;21.10;60.90
15409;DHT22;7803;48.130;13.788;2023-04-01T12:09:28;21.10;61.10
15409;DHT22;7803;48.130;13.788;2023-04-01T12:12:37;21.10;61.20
15409;DHT22;7803;48.130;13.788;2023-04-01T12:15:53;21.10;61.40
15409;DHT22;7803;48.130;13.788;2023-04-01T12:19:08;21.10;61.40
15409;DHT22;7803;48.130;13.788;2023-04-01T12:22:27;21.10;63.00
15409;DHT22;7803;48.130;13.788;2023-04-01T12:25:51;21.10;65.80
15409;DHT22;7803;48.130;13.788;2023-04-01T12:29:07;21.10;64.30
15409;DHT22;7803;48.130;13.788;2023-04-01T12:32:18;21.10;63.70
15409;DHT22;7803;48.130;13.788;2023-04-01T12:35:25;21.20;63.60
15409;DHT22;7803;48.130;13.788;2023-04-01T12:38:35;21.20;63.80
15409;DHT22;7803;48.130;13.788;2023-04-01T12:41:44;21.20;64.20
15409;DHT22;7803;48.130;13.788;2023-04-01T12:45:02;21.20;64.30
15409;DHT22;7803;48.130;13.788;2023-04-01T12:48:23;21.30;64.30
15409;DHT22;7803;48.130;13.788;2023-04-01T12:51:45;21.30;64.10
15409;DHT22;7803;48.130;13.788;2023-04-01T12:55:01;21.30;63.90
15409;DHT22;7803;48.130;13.788;2023-04-01T13:02:05;21.30;63.90
15409;DHT22;7803;48.130;13.788;2023-04-01T13:08:56;21.30;63.80
15409;DHT22;7803;48.130;13.788;2023-04-01T13:15:41;21.30;63.80
15409;DHT22;7803;48.130;13.788;2023-04-01T13:18:58;21.30;63.80
15409;DHT22;7803;48.130;13.788;2023-04-01T13:22:08;21.30;63.80
15409;DHT22;7803;48.130;13.788;2023-04-01T13:25:24;21.30;63.80
15409;DHT22;7803;48.130;13.788;2023-04-01T13:28:31;21.40;63.90
15409;DHT22;7803;48.130;13.788;2023-04-01T13:31:43;21.30;63.90
15409;DHT22;7803;48.130;13.788;2023-04-01T13:34:56;21.30;63.90
15409;DHT22;7803;48.130;13.788;2023-04-01T13:38:13;21.40;64.00
15409;DHT22;7803;48.130;13.788;2023-04-01T13:41:29;21.30;64.00
15409;DHT22;7803;48.130;13.788;2023-04-01T13:44:35;21.30;64.00
15409;DHT22;7803;48.130;13.788;2023-04-01T13:48:04;21.30;64.10
15409;DHT22;7803;48.130;13.788;2023-04-01T13:51:22;21.30;64.10
15409;DHT22;7803;48.130;13.788;2023-04-01T13:58:35;21.30;64.30
15409;DHT22;7803;48.130;13.788;2023-04-01T14:01:43;21.30;64.40
15409;DHT22;7803;48.130;13.788;2023-04-01T14:05:01;21.30;64.60
15409;DHT22;7803;48.130;13.788;2023-04-01T14:08:20;21.30;65.00
15409;DHT22;7803;48.130;13.788;2023-04-01T14:11:35;21.40;65.50
15409;DHT22;7803;48.130;13.788;2023-04-01T14:14:54;21.40;66.00
15409;DHT22;7803;48.130;13.788;2023-04-01T14:18:15;21.40;66.10
15409;DHT22;7803;48.130;13.788;2023-04-01T14:21:36;21.40;65.90
15409;DHT22;7803;48.130;13.788;2023-04-01T14:24:52;21.30;65.80
15409;DHT22;7803;48.130;13.788;2023-04-01T14:28:11;21.40;66.10
15409;DHT22;7803;48.130;13.788;2023-04-01T14:31:27;21.40;66.20
15409;DHT22;7803;48.130;13.788;2023-04-01T14:34:53;21.40;66.20
15409;DHT22;7803;48.130;13.788;2023-04-01T14:38:05;21.30;66.30
15409;DHT22;7803;48.130;13.788;2023-04-01T14:41:20;21.40;66.40
15409;DHT22;7803;48.130;13.788;2023-04-01T14:44:45;21.30;66.30
15409;DHT22;7803;48.130;13.788;2023-04-01T14:47:54;21.30;66.40
15409;DHT22;7803;48.130;13.788;2023-04-01T14:51:03;21.40;66.60
15409;DHT22;7803;48.130;13.788;2023-04-01T14:54:14;21.40;66.60
15409;DHT22;7803;48.130;13.788;2023-04-01T14:57:24;21.30;66.60
15409;DHT22;7803;48.130;13.788;2023-04-01T15:00:28;21.30;66.60
15409;DHT22;7803;48.130;13.788;2023-04-01T15:03:50;21.30;66.60
15409;DHT22;7803;48.130;13.788;2023-04-01T15:07:06;21.30;66.70
15409;DHT22;7803;48.130;13.788;2023-04-01T15:10:23;21.30;66.70
15409;DHT22;7803;48.130;13.788;2023-04-01T15:13:48;21.30;66.80
15409;DHT22;7803;48.130;13.788;2023-04-01T15:17:04;21.40;66.90
15409;DHT22;7803;48.130;13.788;2023-04-01T15:20:34;21.40;66.90
15409;DHT22;7803;48.130;13.788;2023-04-01T15:23:48;21.30;66.90
15409;DHT22;7803;48.130;13.788;2023-04-01T15:27:06;21.30;66.80
15409;DHT22;7803;48.130;13.788;2023-04-01T15:30:27;21.40;66.90
15409;DHT22;7803;48.130;13.788;2023-04-01T15:33:48;21.30;66.90
15409;DHT22;7803;48.130;13.788;2023-04-01T15:37:01;21.30;66.90
15409;DHT22;7803;48.130;13.788;2023-04-01T15:40:17;21.40;67.00
15409;DHT22;7803;48.130;13.788;2023-04-01T15:43:29;21.40;67.90
15409;DHT22;7803;48.130;13.788;2023-04-01T15:46:43;21.30;66.90
15409;DHT22;7803;48.130;13.788;2023-04-01T15:49:52;21.40;67.10
15409;DHT22;7803;48.130;13.788;2023-04-01T15:53:06;21.40;67.10
15409;DHT22;7803;48.130;13.788;2023-04-01T15:56:19;21.40;67.10
15409;DHT22;7803;48.130;13.788;2023-04-01T15:59:43;21.40;67.10
15409;DHT22;7803;48.130;13.788;2023-04-01T16:02:48;21.40;67.10
15409;DHT22;7803;48.130;13.788;2023-04-01T16:06:02;21.40;67.10
15409;DHT22;7803;48.130;13.788;2023-04-01T16:09:40;21.40;67.10
15409;DHT22;7803;48.130;13.788;2023-04-01T16:12:54;21.40;67.10
15409;DHT22;7803;48.130;13.788;2023-04-01T16:16:09;21.40;67.00
15409;DHT22;7803;48.130;13.788;2023-04-01T16:19:30;21.40;67.10
15409;DHT22;7803;48.130;13.788;2023-04-01T16:22:37;21.40;67.00
15409;DHT22;7803;48.130;13.788;2023-04-01T16:25:45;21.40;67.00
15409;DHT22;7803;48.130;13.788;2023-04-01T16:28:55;21.40;67.00
15409;DHT22;7803;48.130;13.788;2023-04-01T16:32:13;21.40;67.00
15409;DHT22;7803;48.130;13.788;2023-04-01T16:35:29;21.40;67.00
15409;DHT22;7803;48.130;13.788;2023-04-01T16:38:37;21.40;67.00
15409;DHT22;7803;48.130;13.788;2023-04-01T16:41:48;21.40;67.00
15409;DHT22;7803;48.130;13.788;2023-04-01T16:44:55;21.40;67.00
15409;DHT22;7803;48.130;13.788;2023-04-01T16:48:05;21.40;67.00
15409;DHT22;7803;48.130;13.788;2023-04-01T16:51:12;21.40;67.00
15409;DHT22;7803;48.130;13.788;2023-04-01T16:54:28;21.40;67.00
15409;DHT22;7803;48.130;13.788;2023-04-01T16:57:37;21.40;67.10
15409;DHT22;7803;48.130;13.788;2023-04-01T17:00:48;21.40;67.00
15409;DHT22;7803;48.130;13.788;2023-04-01T17:03:57;21.40;67.00
15409;DHT22;7803;48.130;13.788;2023-04-01T17:07:10;21.40;67.00
15409;DHT22;7803;48.130;13.788;2023-04-01T17:10:27;21.40;67.10
15409;DHT22;7803;48.130;13.788;2023-04-01T17:13:46;21.40;67.00
15409;DHT22;7803;48.130;13.788;2023-04-01T17:17:00;21.40;67.00
15409;DHT22;7803;48.130;13.788;2023-04-01T17:20:24;21.40;67.00
15409;DHT22;7803;48.130;13.788;2023-04-01T17:23:32;21.40;67.00
15409;DHT22;7803;48.130;13.788;2023-04-01T17:26:39;21.40;67.00
15409;DHT22;7803;48.130;13.788;2023-04-01T17:29:59;21.40;67.00
15409;DHT22;7803;48.130;13.788;2023-04-01T17:33:18;21.40;67.00
15409;DHT22;7803;48.130;13.788;2023-04-01T17:36:41;21.40;67.00
15409;DHT22;7803;48.130;13.788;2023-04-01T17:39:57;21.40;67.00
15409;DHT22;7803;48.130;13.788;2023-04-01T17:43:12;21.40;66.90
15409;DHT22;7803;48.130;13.788;2023-04-01T17:46:35;21.40;66.90
15409;DHT22;7803;48.130;13.788;2023-04-01T17:49:45;21.40;67.00
15409;DHT22;7803;48.130;13.788;2023-04-01T17:53:11;21.40;66.90
15409;DHT22;7803;48.130;13.788;2023-04-01T17:56:27;21.40;66.90
15409;DHT22;7803;48.130;13.788;2023-04-01T17:59:37;21.40;66.90
15409;DHT22;7803;48.130;13.788;2023-04-01T18:02:47;21.40;66.90
15409;DHT22;7803;48.130;13.788;2023-04-01T18:06:01;21.40;66.90
15409;DHT22;7803;48.130;13.788;2023-04-01T18:09:15;21.40;66.90
15409;DHT22;7803;48.130;13.788;2023-04-01T18:12:27;21.40;66.90
15409;DHT22;7803;48.130;13.788;2023-04-01T18:15:37;21.40;66.90
15409;DHT22;7803;48.130;13.788;2023-04-01T18:18:52;21.40;66.90
15409;DHT22;7803;48.130;13.788;2023-04-01T18:22:10;21.40;66.90
15409;DHT22;7803;48.130;13.788;2023-04-01T18:25:26;21.40;66.90
15409;DHT22;7803;48.130;13.788;2023-04-01T18:28:36;21.40;66.90
15409;DHT22;7803;48.130;13.788;2023-04-01T18:31:43;21.40;66.90
15409;DHT22;7803;48.130;13.788;2023-04-01T18:34:54;21.40;66.90
15409;DHT22;7803;48.130;13.788;2023-04-01T18:38:06;21.40;66.90
15409;DHT22;7803;48.130;13.788;2023-04-01T18:41:14;21.40;66.90
15409;DHT22;7803;48.130;13.788;2023-04-01T18:44:28;21.40;66.90
15409;DHT22;7803;48.130;13.788;2023-04-01T18:47:41;21.50;66.90
15409;DHT22;7803;48.130;13.788;2023-04-01T18:50:53;21.40;66.90
15409;DHT22;7803;48.130;13.788;2023-04-01T18:54:00;21.40;66.90
15409;DHT22;7803;48.130;13.788;2023-04-01T18:57:09;21.40;66.90
15409;DHT22;7803;48.130;13.788;2023-04-01T19:00:18;21.50;67.00
15409;DHT22;7803;48.130;13.788;2023-04-01T19:03:27;21.40;66.90
15409;DHT22;7803;48.130;13.788;2023-04-01T19:06:43;21.40;66.90
15409;DHT22;7803;48.130;13.788;2023-04-01T19:09:49;21.50;67.00
15409;DHT22;7803;48.130;13.788;2023-04-01T19:13:04;21.40;66.90
15409;DHT22;7803;48.130;13.788;2023-04-01T19:16:17;21.40;66.90
15409;DHT22;7803;48.130;13.788;2023-04-01T19:19:38;21.50;67.00
15409;DHT22;7803;48.130;13.788;2023-04-01T19:22:54;21.40;66.90
15409;DHT22;7803;48.130;13.788;2023-04-01T19:26:00;21.40;66.90
15409;DHT22;7803;48.130;13.788;2023-04-01T19:29:13;21.50;67.00
15409;DHT22;7803;48.130;13.788;2023-04-01T19:32:29;21.50;67.00
15409;DHT22;7803;48.130;13.788;2023-04-01T19:35:38;21.40;67.00
15409;DHT22;7803;48.130;13.788;2023-04-01T19:38:55;21.50;67.00
15409;DHT22;7803;48.130;13.788;2023-04-01T19:42:08;21.50;67.00
15409;DHT22;7803;48.130;13.788;2023-04-01T19:45:25;21.50;67.00
15409;DHT22;7803;48.130;13.788;2023-04-01T19:48:39;21.50;67.20
15409;DHT22;7803;48.130;13.788;2023-04-01T19:51:51;21.50;67.00
15409;DHT22;7803;48.130;13.788;2023-04-01T19:55:03;21.50;67.10
15409;DHT22;7803;48.130;13.788;2023-04-01T19:58:12;21.50;67.00
15409;DHT22;7803;48.130;13.788;2023-04-01T20:01:24;21.50;67.00
15409;DHT22;7803;48.130;13.788;2023-04-01T20:04:32;21.50;67.00
15409;DHT22;7803;48.130;13.788;2023-04-01T20:07:42;21.50;67.00
15409;DHT22;7803;48.130;13.788;2023-04-01T20:10:54;21.50;67.00
15409;DHT22;7803;48.130;13.788;2023-04-01T20:14:09;21.50;67.10
15409;DHT22;7803;48.130;13.788;2023-04-01T20:17:20;21.50;67.00
15409;DHT22;7803;48.130;13.788;2023-04-01T20:20:25;21.50;67.00
15409;DHT22;7803;48.130;13.788;2023-04-01T20:23:40;21.50;67.00
15409;DHT22;7803;48.130;13.788;2023-04-01T20:26:47;21.50;67.00
15409;DHT22;7803;48.130;13.788;2023-04-01T20:30:04;21.50;67.00
15409;DHT22;7803;48.130;13.788;2023-04-01T20:33:32;21.50;67.00
15409;DHT22;7803;48.130;13.788;2023-04-01T20:36:46;21.50;66.90
15409;DHT22;7803;48.130;13.788;2023-04-01T20:43:51;21.50;67.10
15409;DHT22;7803;48.130;13.788;2023-04-01T20:47:02;21.50;67.10
15409;DHT22;7803;48.130;13.788;2023-04-01T20:50:18;21.40;67.10
15409;DHT22;7803;48.130;13.788;2023-04-01T20:53:26;21.50;67.10
15409;DHT22;7803;48.130;13.788;2023-04-01T20:56:38;21.40;67.10
15409;DHT22;7803;48.130;13.788;2023-04-01T21:00:03;21.40;67.10
15409;DHT22;7803;48.130;13.788;2023-04-01T21:03:13;21.40;67.20